Time;durP1;ratioP1;P1;durP2;ratioP2;P2;SDS_P1;SDS_P2;PMS_P1;PMS_P2;Temp;Humidity;BMP_temperature;BMP_pressure;BME280_temperature;BME280_humidity;BME280_pressure;Samples;Min_cycle;Max_cycle;Signal;HPM_P1;HPM_P2
2022/04/17 00:00:16;;;;;;;9.88;2.45;;;;;;;16.77;49.81;101767.72;5009454;28;20069;-51
2022/04/17 00:02:43;;;;;;;7.95;2.22;;;;;;;16.57;50.21;101759.78;5003957;28;20018;-52
2022/04/17 00:05:09;;;;;;;12.77;2.08;;;;;;;16.09;51.35;101757.72;5011000;28;20388;-51
2022/04/17 00:07:36;;;;;;;7.85;2.50;;;;;;;16.32;50.81;101761.69;5011658;28;20030;-47
2022/04/17 00:10:03;;;;;;;9.65;2.25;;;;;;;16.28;50.72;101768.59;5010521;28;20034;-51
2022/04/17 00:12:30;;;;;;;10.20;2.20;;;;;;;16.34;51.10;101759.59;5011713;28;20030;-50
2022/04/17 00:14:56;;;;;;;10.60;2.47;;;;;;;16.41;51.04;101771.16;4995986;28;20181;-51
2022/04/17 00:17:25;;;;;;;6.78;1.92;;;;;;;16.14;50.34;101769.75;4991727;28;20061;-51
2022/04/17 00:19:51;;;;;;;7.82;2.15;;;;;;;16.19;50.53;101780.72;5006947;28;20393;-52
2022/04/17 00:22:17;;;;;;;10.27;2.22;;;;;;;16.30;49.63;101790.78;5011366;28;20045;-51
2022/04/17 00:24:44;;;;;;;13.32;2.70;;;;;;;16.12;49.46;101804.25;5010096;28;20049;-50
2022/04/17 00:27:10;;;;;;;6.35;1.58;;;;;;;16.05;49.49;101807.00;5011357;28;20105;-49
2022/04/17 00:29:37;;;;;;;10.07;1.85;;;;;;;15.85;50.22;101807.13;5009307;28;20074;-50
2022/04/17 00:32:04;;;;;;;11.00;2.30;;;;;;;15.72;52.10;101805.34;5011669;28;20030;-51
2022/04/17 00:34:30;;;;;;;11.18;2.28;;;;;;;15.77;51.62;101808.22;5009902;28;20026;-51
2022/04/17 00:37:00;;;;;;;7.43;2.15;;;;;;;15.70;52.12;101811.97;5014405;28;20041;-49
2022/04/17 00:39:27;;;;;;;18.02;3.95;;;;;;;15.87;53.00;101810.44;5013771;28;20033;-50
2022/04/17 00:41:54;;;;;;;9.98;2.45;;;;;;;15.70;51.73;101820.91;5013589;28;20034;-51
2022/04/17 00:44:21;;;;;;;7.68;2.38;;;;;;;15.35;52.53;101819.59;5013935;28;20046;-50
2022/04/17 00:46:47;;;;;;;11.45;3.08;;;;;;;15.25;54.09;101815.47;5010915;28;20508;-48
2022/04/17 00:49:13;;;;;;;12.40;2.65;;;;;;;15.24;53.92;101823.78;5000112;28;20097;-50
2022/04/17 00:51:43;;;;;;;13.55;2.90;;;;;;;14.94;55.57;101837.78;5014282;28;20525;-50
2022/04/17 00:54:12;;;;;;;12.85;2.33;;;;;;;14.69;54.31;101831.38;5008211;28;20042;-51
2022/04/17 00:56:38;;;;;;;13.57;2.58;;;;;;;14.78;54.48;101830.13;5011070;28;20034;-54
2022/04/17 00:59:12;;;;;;;12.57;2.80;;;;;;;14.81;54.32;101835.09;5014224;28;20037;-50
2022/04/17 01:01:38;;;;;;;8.52;1.92;;;;;;;14.83;54.18;101830.34;5014353;28;20040;-51
2022/04/17 01:04:06;;;;;;;8.35;1.70;;;;;;;14.85;54.04;101832.81;5014288;28;20379;-51
2022/04/17 01:06:32;;;;;;;7.65;2.08;;;;;;;14.72;53.34;101825.59;5014654;28;20187;-52
2022/04/17 01:09:00;;;;;;;6.35;1.77;;;;;;;14.62;53.61;101830.56;5014310;28;20033;-51
2022/04/17 01:11:27;;;;;;;8.18;2.42;;;;;;;14.49;52.51;101824.16;5014126;28;20463;-51
2022/04/17 01:13:54;;;;;;;10.20;2.35;;;;;;;14.23;53.17;101821.41;5012588;28;20033;-49
2022/04/17 01:16:23;;;;;;;8.45;2.13;;;;;;;14.17;53.51;101825.75;5013561;28;20121;-51
2022/04/17 01:19:01;;;;;;;10.73;2.17;;;;;;;14.02;53.80;101822.41;5013926;28;20030;-52
2022/04/17 01:21:31;;;;;;;10.48;2.58;;;;;;;13.83;55.10;101815.16;5005455;28;20065;-49
2022/04/17 01:26:58;;;;;;;10.85;2.40;;;;;;;13.89;54.38;101822.41;5003947;28;20440;-49
2022/04/17 01:29:33;;;;;;;11.07;2.65;;;;;;;13.74;55.55;101823.41;5013969;28;20038;-48
2022/04/17 01:32:00;;;;;;;10.60;2.58;;;;;;;13.79;54.89;101825.47;5013561;28;20541;-51
2022/04/17 01:34:27;;;;;;;7.60;2.45;;;;;;;13.83;55.71;101831.31;5013448;28;20040;-52
2022/04/17 01:36:54;;;;;;;8.90;2.20;;;;;;;13.58;54.55;101833.69;5013789;28;20033;-48
2022/04/17 01:39:21;;;;;;;12.18;2.45;;;;;;;13.75;54.08;101851.13;5013642;28;20428;-52
2022/04/17 01:41:49;;;;;;;6.00;2.08;;;;;;;13.58;54.63;101844.44;5013541;28;20099;-50
2022/04/17 01:44:17;;;;;;;11.27;2.55;;;;;;;13.56;54.10;101850.03;5012796;28;20045;-51
2022/04/17 01:46:44;;;;;;;7.35;1.73;;;;;;;13.77;54.27;101849.09;5010507;28;20139;-51
2022/04/17 01:49:11;;;;;;;10.00;2.03;;;;;;;13.65;54.51;101850.69;5001063;28;20076;-49
2022/04/17 01:51:39;;;;;;;12.98;2.60;;;;;;;13.43;54.98;101850.78;4998706;28;20089;-49
2022/04/17 01:54:07;;;;;;;8.27;2.20;;;;;;;13.48;55.16;101853.72;5007839;28;20161;-48
2022/04/17 01:56:35;;;;;;;11.15;2.05;;;;;;;13.63;55.54;101861.66;5012990;28;20096;-51
2022/04/17 01:59:01;;;;;;;14.15;2.28;;;;;;;13.68;55.45;101855.66;5013143;28;20022;-48
2022/04/17 02:01:28;;;;;;;12.38;2.13;;;;;;;13.84;55.08;101862.56;5008258;28;20054;-48
2022/04/17 02:03:54;;;;;;;10.40;2.30;;;;;;;13.78;54.82;101863.38;5005470;28;20022;-51
2022/04/17 02:06:21;;;;;;;10.27;2.80;;;;;;;13.55;55.42;101856.47;5012613;28;20028;-51
2022/04/17 02:08:47;;;;;;;9.52;2.05;;;;;;;13.69;55.37;101862.69;5013253;28;20032;-51
2022/04/17 02:11:13;;;;;;;7.18;2.05;;;;;;;13.32;56.19;101858.59;5012875;28;20057;-52
2022/04/17 02:13:40;;;;;;;4.75;1.90;;;;;;;13.56;56.79;101857.28;5012627;28;20030;-51
2022/04/17 02:16:06;;;;;;;10.38;2.53;;;;;;;13.30;56.36;101861.50;4995903;28;20583;-51
2022/04/17 02:18:32;;;;;;;8.50;1.95;;;;;;;13.37;56.57;101870.41;4993414;28;20033;-51
2022/04/17 02:20:59;;;;;;;7.45;2.30;;;;;;;13.26;56.26;101868.28;4992969;28;20034;-51
2022/04/17 02:23:25;;;;;;;15.27;2.38;;;;;;;13.04;57.00;101872.06;5003394;28;20081;-50
2022/04/17 02:25:55;;;;;;;7.43;2.25;;;;;;;13.01;57.29;101869.78;4992955;28;20066;-50
2022/04/17 02:28:21;;;;;;;12.90;3.03;;;;;;;12.94;57.16;101870.56;4993673;28;20026;-51
2022/04/17 02:30:47;;;;;;;6.70;2.03;;;;;;;12.99;57.43;101878.03;4993223;28;20034;-51
2022/04/17 02:33:13;;;;;;;9.98;2.20;;;;;;;12.80;57.23;101881.41;4993211;28;20041;-51
2022/04/17 02:35:39;;;;;;;11.57;2.42;;;;;;;12.68;57.25;101887.31;4995293;28;20133;-52
2022/04/17 02:38:06;;;;;;;12.00;2.28;;;;;;;12.62;57.19;101892.63;5011517;28;20377;-51
2022/04/17 02:40:32;;;;;;;12.52;2.30;;;;;;;12.74;56.86;101880.34;4996317;28;20436;-51
2022/04/17 02:42:59;;;;;;;6.82;1.90;;;;;;;12.42;57.84;101885.22;5002383;28;20060;-51
2022/04/17 02:45:27;;;;;;;5.93;2.15;;;;;;;12.13;58.44;101885.34;5011720;28;20048;-48
2022/04/17 02:47:53;;;;;;;8.77;2.15;;;;;;;12.09;58.63;101884.91;5007162;28;20064;-50
2022/04/17 02:50:22;;;;;;;7.18;1.90;;;;;;;11.98;58.14;101882.72;5005313;28;20042;-51
2022/04/17 02:52:49;;;;;;;9.85;2.13;;;;;;;11.83;59.13;101888.13;4995621;28;20034;-49
2022/04/17 02:55:15;;;;;;;7.75;2.67;;;;;;;12.04;58.92;101891.84;5011844;28;20029;-50
2022/04/17 02:57:42;;;;;;;9.65;2.10;;;;;;;12.14;58.64;101892.38;5008961;28;20408;-52
2022/04/17 03:00:10;;;;;;;7.53;2.45;;;;;;;12.02;58.44;101892.06;4995206;28;20034;-50
2022/04/17 03:05:39;;;;;;;10.25;2.25;;;;;;;11.57;58.92;101909.22;4992963;28;20058;-49
2022/04/17 03:08:09;;;;;;;9.77;2.38;;;;;;;11.69;58.50;101902.38;5000191;28;20022;-49
2022/04/17 03:10:37;;;;;;;10.25;2.13;;;;;;;11.68;58.75;101905.25;4992319;28;20038;-49
2022/04/17 03:13:04;;;;;;;6.90;2.22;;;;;;;11.67;58.63;101904.41;4992349;28;20032;-48
2022/04/17 03:15:32;;;;;;;6.93;1.67;;;;;;;11.42;59.48;101900.34;5010818;28;20022;-51
2022/04/17 03:17:59;;;;;;;8.32;1.83;;;;;;;11.49;58.75;101893.22;5012109;28;20032;-49
2022/04/17 03:20:28;;;;;;;8.63;2.65;;;;;;;11.69;59.15;101905.03;5011717;28;20022;-50
2022/04/17 03:22:55;;;;;;;14.98;2.33;;;;;;;11.57;59.27;101909.22;5011758;28;20021;-51
2022/04/17 03:25:21;;;;;;;10.82;2.13;;;;;;;11.17;61.08;101914.03;5011655;28;20164;-49
2022/04/17 03:27:50;;;;;;;11.93;2.22;;;;;;;11.31;61.21;101907.00;5011679;28;20030;-48
2022/04/17 03:30:18;;;;;;;12.15;2.97;;;;;;;11.41;60.83;101915.59;5011621;28;20045;-50
2022/04/17 03:32:46;;;;;;;10.43;2.15;;;;;;;11.30;61.64;101908.84;5011181;28;20026;-51
2022/04/17 03:35:14;;;;;;;9.27;2.20;;;;;;;11.41;61.05;101917.47;5011375;28;20477;-50
2022/04/17 03:37:44;;;;;;;11.98;2.28;;;;;;;11.47;60.95;101930.94;5011203;28;20041;-51
2022/04/17 03:40:12;;;;;;;9.02;2.08;;;;;;;11.46;60.82;101929.28;5012271;28;20034;-50
2022/04/17 03:42:39;;;;;;;5.82;2.00;;;;;;;11.42;61.44;101937.88;5011820;28;20067;-48
2022/04/17 03:45:07;;;;;;;11.68;2.50;;;;;;;11.43;61.50;101947.59;5011586;28;20061;-50
2022/04/17 03:47:34;;;;;;;8.05;2.20;;;;;;;11.42;61.17;101956.66;5011275;28;20062;-49
2022/04/17 03:50:00;;;;;;;8.32;1.95;;;;;;;11.22;61.67;101967.09;5011372;28;20025;-51
2022/04/17 03:52:27;;;;;;;9.95;2.00;;;;;;;11.37;61.62;101975.97;4999416;28;20371;-51
2022/04/17 03:54:53;;;;;;;10.40;2.35;;;;;;;11.37;61.12;101974.09;4991498;28;20022;-50
2022/04/17 03:57:19;;;;;;;14.35;2.33;;;;;;;11.45;60.88;101975.88;5009018;28;20061;-51
2022/04/17 03:59:46;;;;;;;6.28;1.58;;;;;;;11.53;60.66;101977.63;4997585;28;20034;-50
2022/04/17 04:02:12;;;;;;;12.95;2.20;;;;;;;11.55;60.68;101981.00;5011562;28;20112;-49
2022/04/17 04:04:38;;;;;;;7.80;1.70;;;;;;;11.45;61.36;101975.06;5011051;28;20036;-51
2022/04/17 04:07:04;;;;;;;7.80;1.77;;;;;;;11.39;61.15;101975.81;5016158;23;20064;-51
2022/04/17 04:09:31;;;;;;;12.25;2.10;;;;;;;11.46;60.90;101982.09;5012977;28;20036;-51
2022/04/17 04:11:57;;;;;;;14.02;2.50;;;;;;;11.31;61.42;101982.88;5015467;28;20092;-51
2022/04/17 04:14:23;;;;;;;7.07;2.22;;;;;;;11.32;61.13;101983.72;5015217;28;20036;-51
2022/04/17 04:16:49;;;;;;;11.05;2.08;;;;;;;11.26;61.59;101981.78;5015326;28;20038;-51
2022/04/17 04:19:15;;;;;;;4.20;1.52;;;;;;;11.39;60.81;101979.31;5015689;28;20060;-51
2022/04/17 04:21:48;;;;;;;8.50;2.08;;;;;;;11.34;61.31;101984.38;5010879;28;20042;-51
2022/04/17 04:24:15;;;;;;;7.70;2.10;;;;;;;11.30;61.33;101999.16;4995559;28;20470;-51
2022/04/17 04:26:43;;;;;;;4.75;1.90;;;;;;;11.18;61.52;102001.44;4995264;28;20022;-51
2022/04/17 04:29:10;;;;;;;10.45;2.35;;;;;;;11.13;61.72;102001.16;4995260;28;20119;-51
2022/04/17 04:31:36;;;;;;;14.23;2.13;;;;;;;11.16;61.32;102002.63;4995555;28;20074;-47
2022/04/17 04:34:03;;;;;;;7.07;1.83;;;;;;;11.08;60.97;102011.59;4994936;28;20022;-49
2022/04/17 04:36:29;;;;;;;10.55;2.42;;;;;;;11.15;61.14;102014.38;4994183;28;20058;-52
2022/04/17 04:38:56;;;;;;;7.97;2.17;;;;;;;11.16;60.75;102006.16;4994969;28;20022;-48
2022/04/17 04:41:22;;;;;;;9.70;2.17;;;;;;;11.08;60.68;102009.75;4994639;28;20188;-49
2022/04/17 04:43:49;;;;;;;7.10;2.05;;;;;;;11.12;60.64;102014.75;4995170;28;20061;-51
2022/04/17 04:46:15;;;;;;;7.80;2.10;;;;;;;11.16;60.04;102008.00;4995240;28;20124;-52
2022/04/17 04:51:28;;;;;;;9.10;2.00;;;;;;;11.13;59.46;102003.84;4995411;28;20033;-50
2022/04/17 04:53:56;;;;;;;6.57;1.75;;;;;;;11.00;59.73;102001.78;4994785;28;20041;-51
2022/04/17 04:56:26;;;;;;;7.30;1.60;;;;;;;10.94;60.22;102002.50;4994317;28;20410;-49
2022/04/17 04:58:53;;;;;;;9.85;2.47;;;;;;;10.93;60.14;102005.34;4995231;28;20023;-49
2022/04/17 05:01:19;;;;;;;7.90;1.95;;;;;;;11.06;59.46;102003.75;4994852;28;20030;-50
2022/04/17 05:03:46;;;;;;;13.52;2.20;;;;;;;10.94;60.15;102007.88;4994183;28;20034;-52
2022/04/17 05:06:12;;;;;;;8.90;2.05;;;;;;;11.09;59.68;102013.25;4993000;28;20093;-50
2022/04/17 05:08:38;;;;;;;7.00;1.70;;;;;;;11.20;59.35;102020.84;4976049;28;20494;-52
2022/04/17 05:11:04;;;;;;;4.10;1.70;;;;;;;10.92;59.57;102039.34;4994779;28;20060;-51
2022/04/17 05:13:31;;;;;;;9.30;2.42;;;;;;;10.97;59.56;102049.53;4993497;28;20026;-49
2022/04/17 05:15:57;;;;;;;10.68;1.85;;;;;;;10.84;59.53;102048.28;4993498;28;20430;-51
2022/04/17 05:18:23;;;;;;;7.10;2.08;;;;;;;10.70;60.12;102061.59;4992770;28;20030;-51
2022/04/17 05:20:49;;;;;;;6.95;2.20;;;;;;;10.43;60.82;102076.28;4994103;28;20029;-51
2022/04/17 05:23:18;;;;;;;4.35;2.00;;;;;;;10.29;61.30;102078.69;4993137;28;20038;-51
2022/04/17 05:25:48;;;;;;;6.78;2.25;;;;;;;10.26;61.64;102070.16;4994559;28;20029;-50
2022/04/17 05:28:15;;;;;;;5.65;2.20;;;;;;;10.61;61.01;102079.56;4993935;28;20132;-49
2022/04/17 05:30:43;;;;;;;6.95;1.95;;;;;;;10.26;61.71;102088.91;4993628;28;20026;-49
2022/04/17 05:33:09;;;;;;;3.13;1.80;;;;;;;10.17;61.69;102085.41;4992950;28;20481;-51
2022/04/17 05:35:35;;;;;;;10.57;2.05;;;;;;;9.93;62.74;102082.78;4993215;28;20493;-51
2022/04/17 05:38:03;;;;;;;7.22;2.72;;;;;;;10.05;62.18;102079.59;4994019;28;20019;-51
2022/04/17 05:40:33;;;;;;;5.13;1.75;;;;;;;10.02;62.14;102079.94;4992990;28;20456;-52
2022/04/17 05:43:00;;;;;;;6.47;2.22;;;;;;;10.16;61.66;102067.69;4992780;28;20049;-51
2022/04/17 05:45:27;;;;;;;8.95;2.40;;;;;;;10.25;61.57;102057.81;4994003;28;20022;-51
2022/04/17 05:47:53;;;;;;;7.55;2.58;;;;;;;10.13;61.75;102051.97;4992208;28;20038;-51
2022/04/17 05:50:19;;;;;;;8.70;2.72;;;;;;;9.87;62.60;102054.91;4993908;28;20026;-51
2022/04/17 05:52:46;;;;;;;12.18;2.35;;;;;;;9.67;62.97;102049.13;4993361;28;20452;-48
2022/04/17 05:55:12;;;;;;;5.18;2.20;;;;;;;9.66;63.30;102052.81;4992289;28;20077;-51
2022/04/17 05:57:38;;;;;;;9.73;2.05;;;;;;;9.58;63.90;102044.78;4993842;28;20110;-48
2022/04/17 06:00:08;;;;;;;10.75;2.65;;;;;;;9.46;64.04;102036.28;4993681;28;20474;-51
2022/04/17 06:02:35;;;;;;;4.63;1.75;;;;;;;9.69;63.43;102039.06;4993608;28;20121;-48
2022/04/17 06:05:03;;;;;;;8.43;2.40;;;;;;;9.69;63.31;102039.06;4992076;28;20363;-52
2022/04/17 06:07:33;;;;;;;7.25;1.70;;;;;;;9.71;63.26;102034.38;5035771;23;20135;-51
2022/04/17 06:10:03;;;;;;;9.80;2.50;;;;;;;9.40;64.15;102044.16;5033105;28;20449;-51
2022/04/17 06:12:30;;;;;;;8.00;2.45;;;;;;;9.55;65.03;102050.47;5033379;28;20108;-51
2022/04/17 06:14:56;;;;;;;4.88;2.00;;;;;;;9.46;65.16;102046.13;5007848;28;20030;-51
2022/04/17 06:17:22;;;;;;;11.15;2.40;;;;;;;9.37;65.74;102042.63;5011532;28;20049;-50
2022/04/17 06:19:48;;;;;;;9.25;2.13;;;;;;;9.09;66.98;102044.81;5012303;28;20543;-51
2022/04/17 06:22:15;;;;;;;9.52;1.88;;;;;;;9.28;66.08;102043.66;5011979;28;20034;-51
2022/04/17 06:24:41;;;;;;;4.43;1.98;;;;;;;9.35;65.89;102038.47;5011885;28;20474;-51
2022/04/17 06:27:07;;;;;;;6.60;1.95;;;;;;;9.33;65.43;102032.44;5012906;28;20065;-48
2022/04/17 06:29:34;;;;;;;9.07;2.05;;;;;;;9.29;65.39;102034.63;5012064;28;20034;-52
2022/04/17 06:32:01;;;;;;;5.63;2.15;;;;;;;9.35;64.84;102041.97;5011836;28;20531;-51
2022/04/17 06:34:27;;;;;;;8.00;2.42;;;;;;;9.32;64.61;102033.44;5009948;28;20111;-51
2022/04/17 06:36:54;;;;;;;7.03;2.13;;;;;;;9.31;64.21;102034.47;5012010;28;20038;-51
2022/04/17 06:39:20;;;;;;;9.90;2.35;;;;;;;9.35;63.75;102036.63;5012751;28;20061;-51
2022/04/17 06:41:46;;;;;;;9.45;2.25;;;;;;;9.25;64.35;102031.44;5011253;28;20515;-48
2022/04/17 06:44:13;;;;;;;6.28;2.15;;;;;;;9.21;64.68;102032.78;5011524;28;20029;-52
2022/04/17 06:46:39;;;;;;;8.27;1.88;;;;;;;9.16;64.38;102044.97;5011855;28;20022;-51
2022/04/17 06:49:08;;;;;;;6.68;2.28;;;;;;;9.24;64.04;102029.78;5011555;28;20045;-50
2022/04/17 06:51:35;;;;;;;8.55;2.40;;;;;;;9.23;63.62;102033.47;5011951;28;20117;-50
2022/04/17 06:54:01;;;;;;;6.70;2.15;;;;;;;9.15;64.35;102038.81;5011908;28;20499;-49
2022/04/17 06:56:27;;;;;;;9.95;2.60;;;;;;;9.28;64.46;102027.63;5012682;28;20025;-50
2022/04/17 06:58:53;;;;;;;10.10;2.20;;;;;;;9.20;65.02;102031.13;5012184;28;20030;-50
2022/04/17 07:01:19;;;;;;;5.35;1.77;;;;;;;9.17;65.46;102042.16;5011782;28;20508;-50
2022/04/17 07:03:46;;;;;;;6.50;2.78;;;;;;;9.15;66.83;102036.13;5010699;28;20037;-50
2022/04/17 07:06:12;;;;;;;14.32;3.00;;;;;;;9.17;67.20;102041.31;5011432;28;20048;-51
2022/04/17 07:08:39;;;;;;;7.03;1.80;;;;;;;9.10;67.65;102040.31;5012441;28;20022;-51
2022/04/17 07:11:05;;;;;;;13.50;2.25;;;;;;;9.14;67.08;102050.50;5011738;28;20030;-50
2022/04/17 07:13:32;;;;;;;7.93;1.90;;;;;;;9.16;67.75;102061.00;5010756;28;20113;-51
2022/04/17 07:15:58;;;;;;;8.82;2.03;;;;;;;9.09;67.65;102065.34;5011939;28;20048;-49
2022/04/17 07:18:24;;;;;;;12.07;2.25;;;;;;;8.94;68.68;102068.69;5011445;28;20038;-51
2022/04/17 07:20:50;;;;;;;10.38;2.10;;;;;;;8.94;68.54;102079.38;5011242;28;20045;-48
2022/04/17 07:23:17;;;;;;;13.98;2.38;;;;;;;8.91;69.22;102084.19;5011269;28;20049;-48
2022/04/17 07:25:44;;;;;;;8.70;2.40;;;;;;;8.91;68.57;102087.69;5011634;28;20034;-48
2022/04/17 07:28:12;;;;;;;8.50;2.10;;;;;;;9.04;69.04;102100.56;5011655;28;20536;-51
2022/04/17 07:30:38;;;;;;;10.20;2.95;;;;;;;8.85;69.67;102112.38;5010761;28;20073;-50
2022/04/17 07:33:05;;;;;;;12.75;2.63;;;;;;;8.89;68.89;102119.09;5010969;28;20041;-51
2022/04/17 07:35:31;;;;;;;6.85;1.83;;;;;;;8.78;69.23;102126.56;5011711;28;20033;-51
2022/04/17 07:38:00;;;;;;;11.63;2.60;;;;;;;8.86;68.76;102129.25;5010972;28;20359;-50
2022/04/17 07:40:31;;;;;;;7.93;2.13;;;;;;;8.88;67.98;102132.56;5010809;28;20167;-49
2022/04/17 07:42:59;;;;;;;8.73;1.83;;;;;;;8.88;67.86;102122.75;5005131;28;20022;-49
2022/04/17 07:45:26;;;;;;;11.05;1.73;;;;;;;8.94;67.46;102127.44;5014851;28;20047;-51
2022/04/17 07:47:53;;;;;;;10.10;1.70;;;;;;;8.89;67.96;102110.25;5017364;28;20038;-49
2022/04/17 07:50:23;;;;;;;10.63;2.20;;;;;;;9.02;67.73;102101.75;5018378;28;20026;-50
2022/04/17 07:52:50;;;;;;;8.95;1.90;;;;;;;9.04;68.14;102108.56;5016340;28;20022;-51
2022/04/17 07:55:17;;;;;;;7.45;2.30;;;;;;;9.04;68.04;102103.22;5018139;28;20033;-51
2022/04/17 08:00:35;;;;;;;13.10;2.40;;;;;;;8.87;68.12;102104.22;5017438;28;20030;-51
2022/04/17 08:04:02;;;;;;;13.40;2.97;;;;;;;8.90;67.88;102122.59;5017366;28;20045;-50
2022/04/17 08:05:57;;;;;;;12.53;2.40;;;;;;;8.82;67.80;102122.56;4992967;28;20083;-52
2022/04/17 08:08:23;;;;;;;7.45;2.20;;;;;;;8.96;67.07;102121.94;5016813;28;20362;-47
2022/04/17 08:10:49;;;;;;;6.20;2.25;;;;;;;8.92;67.41;102126.75;5018082;28;20018;-48
2022/04/17 08:13:16;;;;;;;12.43;2.25;;;;;;;8.64;67.92;102128.00;5016788;28;20052;-48
2022/04/17 08:15:43;;;;;;;8.02;1.92;;;;;;;8.63;67.61;102132.50;5017276;28;20248;-50
2022/04/17 08:18:09;;;;;;;17.55;2.28;;;;;;;8.61;67.96;102123.00;5017681;28;20535;-51
2022/04/17 08:20:35;;;;;;;9.82;2.30;;;;;;;8.69;68.29;102117.69;5017102;28;20172;-51
2022/04/17 08:23:02;;;;;;;8.57;2.38;;;;;;;8.71;68.41;102119.19;5017107;28;20026;-49
2022/04/17 08:25:28;;;;;;;9.82;2.30;;;;;;;8.67;68.54;102112.50;5017190;28;20022;-51
2022/04/17 08:27:56;;;;;;;12.35;2.47;;;;;;;8.71;68.34;102092.47;5017952;28;20026;-51
2022/04/17 08:30:29;;;;;;;5.88;2.35;;;;;;;8.57;69.32;102102.97;5017155;28;20038;-51
2022/04/17 08:32:55;;;;;;;12.27;2.40;;;;;;;8.49;69.57;102106.44;5017087;28;20022;-52
2022/04/17 08:35:22;;;;;;;7.82;2.30;;;;;;;8.55;69.36;102108.47;5016849;28;20022;-50
2022/04/17 08:37:49;;;;;;;9.15;2.03;;;;;;;8.53;68.92;102090.94;5018220;28;20026;-51
2022/04/17 08:40:16;;;;;;;9.32;2.40;;;;;;;8.57;68.44;102093.13;5017081;28;20101;-51
2022/04/17 08:42:44;;;;;;;11.25;2.03;;;;;;;8.64;68.24;102094.16;5015428;28;20033;-51
2022/04/17 08:45:14;;;;;;;8.82;2.00;;;;;;;8.45;68.90;102097.09;5023447;22;20065;-51
2022/04/17 08:47:42;;;;;;;9.38;2.13;;;;;;;8.42;70.39;102095.56;5017414;28;20077;-49
2022/04/17 08:50:10;;;;;;;6.80;2.25;;;;;;;8.35;70.93;102101.69;5017203;28;20021;-50
2022/04/17 08:52:38;;;;;;;9.07;2.42;;;;;;;8.50;70.84;102104.63;5016918;28;20036;-51
2022/04/17 08:55:05;;;;;;;12.73;3.13;;;;;;;8.48;70.84;102099.44;5016867;28;20034;-49
2022/04/17 08:57:31;;;;;;;9.85;2.30;;;;;;;8.51;71.00;102103.63;5013792;28;20026;-51
2022/04/17 08:59:58;;;;;;;11.48;2.63;;;;;;;8.54;71.40;102108.63;5013755;28;20156;-50
2022/04/17 09:02:24;;;;;;;10.45;3.10;;;;;;;8.42;71.96;102110.75;5014725;28;20072;-49
2022/04/17 09:04:51;;;;;;;12.93;3.03;;;;;;;8.38;72.46;102120.06;5013704;28;20030;-49
2022/04/17 09:07:17;;;;;;;11.48;2.40;;;;;;;8.48;71.45;102117.28;5014428;28;20056;-51
2022/04/17 09:09:51;;;;;;;14.38;3.25;;;;;;;8.52;71.61;102113.28;5013740;28;20065;-51
2022/04/17 09:12:22;;;;;;;11.50;2.20;;;;;;;8.65;71.08;102122.50;5005951;28;20026;-48
2022/04/17 09:14:49;;;;;;;8.88;2.58;;;;;;;8.54;71.28;102122.78;4995025;28;20030;-48
2022/04/17 09:17:15;;;;;;;8.68;2.50;;;;;;;8.42;72.17;102132.09;4993155;28;20105;-51
2022/04/17 09:19:43;;;;;;;15.15;2.90;;;;;;;8.49;72.33;102124.28;4994760;28;20026;-50
2022/04/17 09:22:10;;;;;;;7.70;2.33;;;;;;;8.41;72.25;102133.09;4992616;28;20113;-52
2022/04/17 09:24:37;;;;;;;12.35;2.70;;;;;;;8.49;71.49;102135.78;4992613;28;20031;-47
2022/04/17 09:27:05;;;;;;;11.18;2.45;;;;;;;8.51;71.42;102141.81;4992935;28;20034;-51
2022/04/17 09:29:36;;;;;;;13.32;2.53;;;;;;;8.56;71.44;102138.66;4994693;28;20033;-49
2022/04/17 09:32:14;;;;;;;7.57;2.35;;;;;;;8.42;71.43;102137.44;4993729;28;20026;-51
2022/04/17 09:34:56;;;;;;;8.32;2.15;;;;;;;8.42;71.44;102132.09;4994034;28;20030;-51
2022/04/17 09:37:23;;;;;;;8.15;2.00;;;;;;;8.56;71.48;102146.69;4992962;28;20030;-50
2022/04/17 09:39:52;;;;;;;8.70;2.58;;;;;;;8.36;71.74;102143.41;4994190;28;20524;-48
2022/04/17 09:42:23;;;;;;;12.32;2.40;;;;;;;8.37;71.94;102143.25;4992036;28;20436;-51
2022/04/17 09:44:51;;;;;;;12.10;2.40;;;;;;;8.37;71.92;102139.72;4993345;28;20513;-48
2022/04/17 09:47:26;;;;;;;10.82;2.15;;;;;;;8.40;71.21;102139.44;4992411;28;20048;-48
2022/04/17 09:50:06;;;;;;;10.00;1.67;;;;;;;8.45;70.64;102145.13;4992662;28;20030;-47
2022/04/17 09:52:46;;;;;;;9.10;2.03;;;;;;;8.32;70.74;102142.00;4993739;28;20027;-51
2022/04/17 09:55:13;;;;;;;14.20;2.13;;;;;;;8.50;71.15;102139.31;4988942;28;20399;-51
2022/04/17 09:57:45;;;;;;;9.95;1.90;;;;;;;8.32;71.22;102142.84;4993825;28;20026;-48
2022/04/17 10:00:18;;;;;;;9.23;1.85;;;;;;;8.32;70.94;102147.34;4991887;28;20057;-51
2022/04/17 10:02:48;;;;;;;11.90;2.63;;;;;;;8.33;71.02;102149.88;4993396;28;20081;-50
2022/04/17 10:05:16;;;;;;;7.40;2.03;;;;;;;8.26;71.32;102154.16;4994335;28;20474;-47
2022/04/17 10:07:44;;;;;;;9.43;2.30;;;;;;;8.20;71.09;102136.94;4991216;28;20049;-51
2022/04/17 10:10:11;;;;;;;12.23;2.45;;;;;;;8.35;70.41;102133.69;4993878;28;20022;-49
2022/04/17 10:12:43;;;;;;;11.32;2.40;;;;;;;8.21;70.68;102135.94;4991256;28;20711;-47
2022/04/17 10:15:11;;;;;;;5.43;2.30;;;;;;;8.13;71.19;102132.41;4992441;28;20429;-49
2022/04/17 10:17:39;;;;;;;10.93;2.35;;;;;;;8.30;70.31;102144.84;4990545;28;20053;-51
2022/04/17 10:20:11;;;;;;;10.27;2.35;;;;;;;8.08;70.38;102151.56;4993474;28;20064;-48
2022/04/17 10:22:40;;;;;;;8.45;2.17;;;;;;;8.27;69.94;102155.00;4991761;28;20116;-51
2022/04/17 10:25:08;;;;;;;4.15;1.77;;;;;;;8.18;69.71;102162.97;4993159;28;20409;-50
2022/04/17 10:27:44;;;;;;;10.15;2.25;;;;;;;7.93;69.87;102169.94;4991496;28;20034;-47
2022/04/17 10:30:21;;;;;;;7.35;2.05;;;;;;;7.90;70.06;102180.94;4991182;28;20110;-50
2022/04/17 10:33:13;;;;;;;12.82;2.47;;;;;;;7.84;70.08;102188.72;4973530;28;20066;-50
2022/04/17 10:35:51;;;;;;;11.07;2.10;;;;;;;7.81;69.67;102183.69;4990560;28;20030;-49
2022/04/17 10:38:39;;;;;;;8.43;1.77;;;;;;;7.83;70.00;102185.22;4992811;28;20421;-51
2022/04/17 10:41:12;;;;;;;9.60;2.05;;;;;;;7.81;68.72;102186.34;4988350;28;20566;-51
2022/04/17 10:43:47;;;;;;;8.02;2.08;;;;;;;7.83;68.75;102195.06;4983481;28;20085;-48
2022/04/17 10:46:18;;;;;;;6.97;1.90;;;;;;;7.81;69.32;102197.03;5028734;23;20099;-50
2022/04/17 10:48:55;;;;;;;7.45;1.83;;;;;;;7.82;68.67;102196.03;5031644;28;20039;-49
2022/04/17 10:51:30;;;;;;;6.25;2.03;;;;;;;7.72;68.47;102192.59;5031446;28;20026;-48
2022/04/17 10:54:07;;;;;;;9.60;2.25;;;;;;;7.73;68.10;102194.31;5031948;28;20064;-49
2022/04/17 10:56:54;;;;;;;3.80;1.38;;;;;;;7.62;68.08;102204.22;5031654;28;20037;-50
2022/04/17 10:59:26;;;;;;;4.97;1.60;;;;;;;7.56;67.88;102215.47;5032065;28;20025;-50
2022/04/17 11:02:00;;;;;;;4.68;1.63;;;;;;;7.59;67.70;102215.16;5030420;28;20033;-48
2022/04/17 11:04:31;;;;;;;6.57;1.40;;;;;;;7.51;67.62;102211.59;5011918;28;20060;-50
2022/04/17 11:07:06;;;;;;;6.05;1.73;;;;;;;7.39;67.77;102217.16;5030063;28;20036;-50
2022/04/17 11:09:42;;;;;;;5.38;1.23;;;;;;;7.37;67.72;102215.63;5027829;28;20108;-51
2022/04/17 11:12:22;;;;;;;3.40;1.23;;;;;;;7.31;67.92;102217.06;5012221;28;20370;-49
2022/04/17 11:15:17;;;;;;;6.95;1.70;;;;;;;7.25;67.78;102217.66;5031454;28;20069;-50
2022/04/17 11:17:46;;;;;;;6.75;1.33;;;;;;;7.24;67.60;102223.16;5031884;28;20033;-52
2022/04/17 11:20:15;;;;;;;5.15;1.40;;;;;;;7.18;67.55;102235.22;5031354;28;20025;-51
2022/04/17 11:22:41;;;;;;;10.48;2.10;;;;;;;7.12;68.38;102233.16;5031288;28;20388;-48
2022/04/17 11:25:09;;;;;;;5.78;1.50;;;;;;;7.12;67.98;102228.69;5031648;28;20131;-51
2022/04/17 11:27:42;;;;;;;5.05;1.40;;;;;;;7.02;68.70;102221.72;5031252;28;20046;-49
2022/04/17 11:30:14;;;;;;;6.05;1.52;;;;;;;7.18;68.82;102221.91;5031882;28;20021;-49
2022/04/17 11:32:40;;;;;;;4.38;1.38;;;;;;;7.07;68.71;102219.47;5031430;28;20029;-50
2022/04/17 11:35:12;;;;;;;5.20;2.08;;;;;;;7.09;67.68;102218.31;5031112;28;20373;-51
2022/04/17 11:37:38;;;;;;;4.10;1.50;;;;;;;7.10;67.47;102221.81;5031573;28;20040;-50
2022/04/17 11:40:16;;;;;;;8.35;1.70;;;;;;;7.14;67.86;102226.69;5031885;28;20354;-51
2022/04/17 11:42:47;;;;;;;6.43;1.50;;;;;;;7.18;67.82;102218.41;5013397;28;20030;-49